sensor_id;sensor_type;location;lat;lon;timestamp;pressure;altitude;pressure_sealevel;temperature;humidity
67818;BME280;54614;47.576;7.524;2023-03-01T00:01:29;99096.56;;;22.33;30.88
67818;BME280;54614;47.576;7.524;2023-03-01T00:03:57;99090.38;;;22.33;30.68
67818;BME280;54614;47.576;7.524;2023-03-01T00:06:24;99088.69;;;22.32;30.92
67818;BME280;54614;47.576;7.524;2023-03-01T00:08:50;99095.06;;;22.31;30.86
67818;BME280;54614;47.576;7.524;2023-03-01T00:11:21;99087.88;;;22.31;30.86
67818;BME280;54614;47.576;7.524;2023-03-01T00:13:49;99088.88;;;22.30;30.92
67818;BME280;54614;47.576;7.524;2023-03-01T00:16:24;99092.59;;;22.29;30.91
67818;BME280;54614;47.576;7.524;2023-03-01T00:18:50;99084.91;;;22.26;30.82
67818;BME280;54614;47.576;7.524;2023-03-01T00:21:17;99084.72;;;22.28;30.83
67818;BME280;54614;47.576;7.524;2023-03-01T00:23:44;99097.28;;;22.27;30.72
67818;BME280;54614;47.576;7.524;2023-03-01T00:26:13;99082.22;;;22.26;30.84
67818;BME280;54614;47.576;7.524;2023-03-01T00:28:39;99086.94;;;22.24;30.72
67818;BME280;54614;47.576;7.524;2023-03-01T00:31:08;99082.59;;;22.23;30.82
67818;BME280;54614;47.576;7.524;2023-03-01T00:33:35;99083.44;;;22.24;30.69
67818;BME280;54614;47.576;7.524;2023-03-01T00:36:02;99084.63;;;22.21;30.76
67818;BME280;54614;47.576;7.524;2023-03-01T00:38:28;99079.28;;;22.21;30.65
67818;BME280;54614;47.576;7.524;2023-03-01T00:40:55;99082.97;;;22.20;30.66
67818;BME280;54614;47.576;7.524;2023-03-01T00:43:21;99092.84;;;22.19;30.80
67818;BME280;54614;47.576;7.524;2023-03-01T00:45:47;99083.97;;;22.19;30.63
67818;BME280;54614;47.576;7.524;2023-03-01T00:48:13;99071.59;;;22.18;30.70
67818;BME280;54614;47.576;7.524;2023-03-01T00:50:40;99076.97;;;22.18;30.62
67818;BME280;54614;47.576;7.524;2023-03-01T00:53:06;99077.16;;;22.16;30.56
67818;BME280;54614;47.576;7.524;2023-03-01T00:55:32;99069.09;;;22.16;30.49
67818;BME280;54614;47.576;7.524;2023-03-01T00:57:58;99075.47;;;22.15;30.43
67818;BME280;54614;47.576;7.524;2023-03-01T01:00:24;99073.63;;;22.16;30.31
67818;BME280;54614;47.576;7.524;2023-03-01T01:02:53;99072.97;;;22.14;30.30
67818;BME280;54614;47.576;7.524;2023-03-01T01:05:19;99072.97;;;22.14;30.24
67818;BME280;54614;47.576;7.524;2023-03-01T01:07:47;99062.63;;;22.11;30.13
67818;BME280;54614;47.576;7.524;2023-03-01T01:10:14;99059.97;;;22.11;30.16
67818;BME280;54614;47.576;7.524;2023-03-01T01:12:44;99065.31;;;22.11;30.04
67818;BME280;54614;47.576;7.524;2023-03-01T01:15:10;99052.09;;;22.09;30.17
67818;BME280;54614;47.576;7.524;2023-03-01T01:17:39;99051.47;;;22.07;30.12
67818;BME280;54614;47.576;7.524;2023-03-01T01:20:05;99045.25;;;22.07;30.19
67818;BME280;54614;47.576;7.524;2023-03-01T01:22:32;99047.94;;;22.07;30.24
67818;BME280;54614;47.576;7.524;2023-03-01T01:24:58;99044.25;;;22.08;30.26
67818;BME280;54614;47.576;7.524;2023-03-01T01:27:24;99047.94;;;22.07;30.33
67818;BME280;54614;47.576;7.524;2023-03-01T01:29:52;99043.59;;;22.06;30.16
67818;BME280;54614;47.576;7.524;2023-03-01T01:32:18;99040.28;;;22.04;30.33
67818;BME280;54614;47.576;7.524;2023-03-01T01:34:44;99034.09;;;22.03;30.27
67818;BME280;54614;47.576;7.524;2023-03-01T01:37:12;99027.91;;;22.03;30.32
67818;BME280;54614;47.576;7.524;2023-03-01T01:39:38;99018.16;;;22.02;30.27
67818;BME280;54614;47.576;7.524;2023-03-01T01:42:04;99028.06;;;22.01;30.27
67818;BME280;54614;47.576;7.524;2023-03-01T01:44:33;99021.88;;;22.01;30.24
67818;BME280;54614;47.576;7.524;2023-03-01T01:47:05;99030.09;;;21.99;30.22
67818;BME280;54614;47.576;7.524;2023-03-01T01:49:44;99023.06;;;21.98;30.51
67818;BME280;54614;47.576;7.524;2023-03-01T01:54:56;99017.88;;;21.97;30.36
67818;BME280;54614;47.576;7.524;2023-03-01T01:57:39;99013.56;;;21.96;30.48
67818;BME280;54614;47.576;7.524;2023-03-01T02:00:13;99016.22;;;21.96;30.45
67818;BME280;54614;47.576;7.524;2023-03-01T02:02:40;99008.19;;;21.96;30.50
67818;BME280;54614;47.576;7.524;2023-03-01T02:05:17;99006.53;;;21.95;30.52
67818;BME280;54614;47.576;7.524;2023-03-01T02:07:48;99011.06;;;21.94;30.54
67818;BME280;54614;47.576;7.524;2023-03-01T02:10:15;98995.81;;;21.95;30.26
67818;BME280;54614;47.576;7.524;2023-03-01T02:12:41;99005.69;;;21.94;30.30
67818;BME280;54614;47.576;7.524;2023-03-01T02:15:08;99001.16;;;21.95;30.45
67818;BME280;54614;47.576;7.524;2023-03-01T02:17:36;98987.13;;;21.93;30.57
67818;BME280;54614;47.576;7.524;2023-03-01T02:20:23;98998.88;;;21.92;30.45
67818;BME280;54614;47.576;7.524;2023-03-01T02:22:54;98992.84;;;21.90;30.42
67818;BME280;54614;47.576;7.524;2023-03-01T02:25:27;98992.84;;;21.90;30.50
67818;BME280;54614;47.576;7.524;2023-03-01T02:28:40;98987.50;;;21.90;30.48
67818;BME280;54614;47.576;7.524;2023-03-01T02:31:08;98984.19;;;21.87;30.36
67818;BME280;54614;47.576;7.524;2023-03-01T02:33:53;98985.19;;;21.86;30.41
67818;BME280;54614;47.576;7.524;2023-03-01T02:36:29;98985.00;;;21.88;30.49
67818;BME280;54614;47.576;7.524;2023-03-01T02:38:58;98977.16;;;21.86;30.55
67818;BME280;54614;47.576;7.524;2023-03-01T02:41:26;98978.34;;;21.84;30.42
67818;BME280;54614;47.576;7.524;2023-03-01T02:43:54;98978.16;;;21.85;30.46
67818;BME280;54614;47.576;7.524;2023-03-01T02:46:24;98972.34;;;21.82;30.57
67818;BME280;54614;47.576;7.524;2023-03-01T02:48:53;98972.34;;;21.82;30.60
67818;BME280;54614;47.576;7.524;2023-03-01T02:56:44;98963.03;;;21.78;30.65
67818;BME280;54614;47.576;7.524;2023-03-01T02:59:19;98970.03;;;21.79;30.45
67818;BME280;54614;47.576;7.524;2023-03-01T03:01:46;98974.56;;;21.78;30.42
67818;BME280;54614;47.576;7.524;2023-03-01T03:04:15;98970.88;;;21.79;30.55
67818;BME280;54614;47.576;7.524;2023-03-01T03:06:49;98966.53;;;21.78;30.39
67818;BME280;54614;47.576;7.524;2023-03-01T03:09:17;98965.69;;;21.78;30.44
67818;BME280;54614;47.576;7.524;2023-03-01T03:11:43;98957.66;;;21.78;30.44
67818;BME280;54614;47.576;7.524;2023-03-01T03:14:11;98946.50;;;21.74;30.31
67818;BME280;54614;47.576;7.524;2023-03-01T03:16:49;98953.50;;;21.75;30.40
67818;BME280;54614;47.576;7.524;2023-03-01T03:19:16;98954.53;;;21.74;30.36
67818;BME280;54614;47.576;7.524;2023-03-01T03:21:43;98955.38;;;21.75;30.37
67818;BME280;54614;47.576;7.524;2023-03-01T03:24:09;98942.16;;;21.73;30.50
67818;BME280;54614;47.576;7.524;2023-03-01T03:26:36;98947.69;;;21.72;30.46
67818;BME280;54614;47.576;7.524;2023-03-01T03:29:02;98947.69;;;21.72;30.43
67818;BME280;54614;47.576;7.524;2023-03-01T03:31:28;98954.91;;;21.71;30.41
67818;BME280;54614;47.576;7.524;2023-03-01T03:33:55;98953.25;;;21.70;30.38
67818;BME280;54614;47.576;7.524;2023-03-01T03:36:23;98948.91;;;21.69;30.32
67818;BME280;54614;47.576;7.524;2023-03-01T03:38:50;98948.06;;;21.69;30.54
67818;BME280;54614;47.576;7.524;2023-03-01T03:41:17;98957.94;;;21.68;30.35
67818;BME280;54614;47.576;7.524;2023-03-01T03:43:44;98955.44;;;21.67;30.48
67818;BME280;54614;47.576;7.524;2023-03-01T03:46:11;98961.63;;;21.67;30.32
67818;BME280;54614;47.576;7.524;2023-03-01T03:48:40;98955.44;;;21.67;30.31
67818;BME280;54614;47.576;7.524;2023-03-01T03:51:09;98952.78;;;21.67;30.33
67818;BME280;54614;47.576;7.524;2023-03-01T03:53:36;98947.97;;;21.62;30.46
67818;BME280;54614;47.576;7.524;2023-03-01T03:56:02;98945.09;;;21.64;30.49
67818;BME280;54614;47.576;7.524;2023-03-01T03:58:28;98944.28;;;21.63;30.34
67818;BME280;54614;47.576;7.524;2023-03-01T04:00:56;98940.78;;;21.63;30.36
67818;BME280;54614;47.576;7.524;2023-03-01T04:03:24;98941.59;;;21.63;30.38
67818;BME280;54614;47.576;7.524;2023-03-01T04:05:51;98947.97;;;21.62;30.36
67818;BME280;54614;47.576;7.524;2023-03-01T04:08:19;98928.22;;;21.63;30.54
67818;BME280;54614;47.576;7.524;2023-03-01T04:10:49;98936.44;;;21.62;30.40
67818;BME280;54614;47.576;7.524;2023-03-01T04:13:18;98934.59;;;21.62;30.20
67818;BME280;54614;47.576;7.524;2023-03-01T04:15:46;98931.91;;;21.62;30.37
67818;BME280;54614;47.576;7.524;2023-03-01T04:18:15;98933.94;;;21.60;30.35
67818;BME280;54614;47.576;7.524;2023-03-01T04:20:42;98938.66;;;21.58;30.34
67818;BME280;54614;47.576;7.524;2023-03-01T04:23:13;98931.44;;;21.59;30.20
67818;BME280;54614;47.576;7.524;2023-03-01T04:25:44;98933.47;;;21.57;30.37
67818;BME280;54614;47.576;7.524;2023-03-01T04:28:11;98927.94;;;21.58;30.39
67818;BME280;54614;47.576;7.524;2023-03-01T04:30:38;98931.63;;;21.57;30.37
67818;BME280;54614;47.576;7.524;2023-03-01T04:33:06;98934.31;;;21.57;30.34
67818;BME280;54614;47.576;7.524;2023-03-01T04:35:33;98939.28;;;21.60;30.25
67818;BME280;54614;47.576;7.524;2023-03-01T04:38:00;98935.78;;;21.60;30.31
67818;BME280;54614;47.576;7.524;2023-03-01T04:40:26;98926.91;;;21.59;30.26
67818;BME280;54614;47.576;7.524;2023-03-01T04:42:53;98932.47;;;21.58;30.30
67818;BME280;54614;47.576;7.524;2023-03-01T04:45:19;98926.09;;;21.59;30.25
67818;BME280;54614;47.576;7.524;2023-03-01T04:47:46;98933.28;;;21.58;30.16
67818;BME280;54614;47.576;7.524;2023-03-01T04:50:15;98923.59;;;21.57;30.17
67818;BME280;54614;47.576;7.524;2023-03-01T04:52:43;98921.94;;;21.56;30.10
67818;BME280;54614;47.576;7.524;2023-03-01T04:55:10;98930.63;;;21.58;30.12
67818;BME280;54614;47.576;7.524;2023-03-01T04:57:36;98928.94;;;21.57;30.11
67818;BME280;54614;47.576;7.524;2023-03-01T05:00:04;98924.63;;;21.56;30.26
67818;BME280;54614;47.576;7.524;2023-03-01T05:02:55;98926.47;;;21.55;30.12
67818;BME280;54614;47.576;7.524;2023-03-01T05:05:33;98923.97;;;21.54;30.16
67818;BME280;54614;47.576;7.524;2023-03-01T05:08:04;98922.31;;;21.53;30.41
67818;BME280;54614;47.576;7.524;2023-03-01T05:10:32;98927.47;;;21.54;30.28
67818;BME280;54614;47.576;7.524;2023-03-01T05:12:59;98923.78;;;21.55;30.14
67818;BME280;54614;47.576;7.524;2023-03-01T05:15:27;98920.09;;;21.57;30.65
67818;BME280;54614;47.576;7.524;2023-03-01T05:17:55;98912.25;;;21.55;29.92
67818;BME280;54614;47.576;7.524;2023-03-01T05:20:24;98912.06;;;21.57;30.23
67818;BME280;54614;47.576;7.524;2023-03-01T05:22:51;98907.72;;;21.55;29.95
67818;BME280;54614;47.576;7.524;2023-03-01T05:25:18;98909.00;;;21.60;29.99
67818;BME280;54614;47.576;7.524;2023-03-01T05:27:44;98898.78;;;21.63;30.16
67818;BME280;54614;47.576;7.524;2023-03-01T05:30:10;98895.91;;;21.65;30.02
67818;BME280;54614;47.576;7.524;2023-03-01T05:32:44;98901.53;;;21.70;30.10
67818;BME280;54614;47.576;7.524;2023-03-01T05:35:16;98905.22;;;21.69;30.11
67818;BME280;54614;47.576;7.524;2023-03-01T05:37:47;98905.22;;;21.69;30.02
67818;BME280;54614;47.576;7.524;2023-03-01T05:40:17;98890.84;;;21.70;30.26
67818;BME280;54614;47.576;7.524;2023-03-01T05:42:49;98889.63;;;21.72;30.23
67818;BME280;54614;47.576;7.524;2023-03-01T05:45:16;98885.94;;;21.73;30.40
67818;BME280;54614;47.576;7.524;2023-03-01T05:47:44;98883.25;;;21.73;30.27
67818;BME280;54614;47.576;7.524;2023-03-01T05:50:16;98882.06;;;21.76;30.44
67818;BME280;54614;47.576;7.524;2023-03-01T05:52:50;98882.69;;;21.78;30.56
67818;BME280;54614;47.576;7.524;2023-03-01T05:55:21;98876.97;;;21.81;30.20
67818;BME280;54614;47.576;7.524;2023-03-01T05:57:48;98865.25;;;21.82;30.27
67818;BME280;54614;47.576;7.524;2023-03-01T06:00:17;98868.75;;;21.82;30.41
67818;BME280;54614;47.576;7.524;2023-03-01T06:02:44;98859.69;;;21.83;30.34
67818;BME280;54614;47.576;7.524;2023-03-01T06:05:14;98862.19;;;21.85;30.21
67818;BME280;54614;47.576;7.524;2023-03-01T06:07:41;98859.03;;;21.96;30.78
67818;BME280;54614;47.576;7.524;2023-03-01T06:10:08;98863.47;;;22.04;30.49
67818;BME280;54614;47.576;7.524;2023-03-01T06:12:37;98862.72;;;22.10;30.74
67818;BME280;54614;47.576;7.524;2023-03-01T06:15:04;98868.53;;;22.13;30.56
67818;BME280;54614;47.576;7.524;2023-03-01T06:17:33;98857.00;;;22.13;30.58
67818;BME280;54614;47.576;7.524;2023-03-01T06:20:10;98859.28;;;22.16;30.86
67818;BME280;54614;47.576;7.524;2023-03-01T06:22:37;98870.28;;;22.21;30.84
67818;BME280;54614;47.576;7.524;2023-03-01T06:25:04;98867.13;;;22.17;30.99
67818;BME280;54614;47.576;7.524;2023-03-01T06:27:31;98871.09;;;22.22;30.85
67818;BME280;54614;47.576;7.524;2023-03-01T06:29:57;98870.53;;;22.26;30.95
67818;BME280;54614;47.576;7.524;2023-03-01T06:32:23;98876.53;;;22.28;31.06
67818;BME280;54614;47.576;7.524;2023-03-01T06:34:50;98881.91;;;22.28;31.20
67818;BME280;54614;47.576;7.524;2023-03-01T06:37:16;98878.38;;;22.28;31.13
67818;BME280;54614;47.576;7.524;2023-03-01T06:39:43;98880.41;;;22.26;31.16
67818;BME280;54614;47.576;7.524;2023-03-01T06:42:09;98877.16;;;22.30;30.96
67818;BME280;54614;47.576;7.524;2023-03-01T06:44:36;98884.38;;;22.30;31.12
67818;BME280;54614;47.576;7.524;2023-03-01T06:47:03;98882.59;;;22.37;31.72
67818;BME280;54614;47.576;7.524;2023-03-01T06:49:29;98883.81;;;22.34;31.66
67818;BME280;54614;47.576;7.524;2023-03-01T06:51:56;98883.19;;;22.32;31.35
67818;BME280;54614;47.576;7.524;2023-03-01T06:54:22;98886.03;;;22.31;30.99
67818;BME280;54614;47.576;7.524;2023-03-01T06:56:49;98886.41;;;22.28;31.02
67818;BME280;54614;47.576;7.524;2023-03-01T06:59:16;98880.03;;;22.29;30.98
67818;BME280;54614;47.576;7.524;2023-03-01T07:01:43;98883.94;;;22.26;31.14
67818;BME280;54614;47.576;7.524;2023-03-01T07:04:10;98878.75;;;22.25;31.05
67818;BME280;54614;47.576;7.524;2023-03-01T07:06:37;98884.13;;;22.25;31.15
67818;BME280;54614;47.576;7.524;2023-03-01T07:09:03;98877.94;;;22.24;30.96
67818;BME280;54614;47.576;7.524;2023-03-01T07:11:29;98882.09;;;22.27;30.94
67818;BME280;54614;47.576;7.524;2023-03-01T07:13:55;98877.56;;;22.27;30.96
67818;BME280;54614;47.576;7.524;2023-03-01T07:16:22;98881.25;;;22.26;30.97
67818;BME280;54614;47.576;7.524;2023-03-01T07:18:48;98883.09;;;22.26;31.01
67818;BME280;54614;47.576;7.524;2023-03-01T07:21:15;98884.31;;;22.23;30.87
67818;BME280;54614;47.576;7.524;2023-03-01T07:23:42;98888.66;;;22.24;31.03
67818;BME280;54614;47.576;7.524;2023-03-01T07:26:08;98888.66;;;22.24;31.06
67818;BME280;54614;47.576;7.524;2023-03-01T07:28:35;98884.31;;;22.23;30.86
67818;BME280;54614;47.576;7.524;2023-03-01T07:31:04;98886.16;;;22.23;31.03
67818;BME280;54614;47.576;7.524;2023-03-01T07:33:31;98886.34;;;22.21;31.14
67818;BME280;54614;47.576;7.524;2023-03-01T07:36:02;98879.31;;;22.20;30.77
67818;BME280;54614;47.576;7.524;2023-03-01T07:38:28;98873.97;;;22.20;31.18
67818;BME280;54614;47.576;7.524;2023-03-01T07:40:59;98871.94;;;22.22;31.02
67818;BME280;54614;47.576;7.524;2023-03-01T07:43:27;98875.81;;;22.19;30.76
67818;BME280;54614;47.576;7.524;2023-03-01T07:45:53;98881.63;;;22.23;30.82
67818;BME280;54614;47.576;7.524;2023-03-01T07:48:19;98877.47;;;22.21;31.10
67818;BME280;54614;47.576;7.524;2023-03-01T07:50:45;98877.09;;;22.24;30.99
67818;BME280;54614;47.576;7.524;2023-03-01T07:53:12;98875.06;;;22.26;31.15
67818;BME280;54614;47.576;7.524;2023-03-01T07:55:38;98874.41;;;22.24;30.81
67818;BME280;54614;47.576;7.524;2023-03-01T07:58:04;98858.34;;;22.24;30.77
67818;BME280;54614;47.576;7.524;2023-03-01T08:00:30;98863.06;;;22.22;30.83
67818;BME280;54614;47.576;7.524;2023-03-01T08:02:59;98858.53;;;22.22;30.82
67818;BME280;54614;47.576;7.524;2023-03-01T08:05:27;98856.69;;;22.23;30.92
67818;BME280;54614;47.576;7.524;2023-03-01T08:07:53;98860.75;;;22.18;30.46
67818;BME280;54614;47.576;7.524;2023-03-01T08:10:19;98855.47;;;22.25;32.14
67818;BME280;54614;47.576;7.524;2023-03-01T08:12:46;98859.06;;;22.32;35.15
67818;BME280;54614;47.576;7.524;2023-03-01T08:15:12;98858.78;;;22.27;38.33
67818;BME280;54614;47.576;7.524;2023-03-01T08:17:38;98857.13;;;22.26;37.93
67818;BME280;54614;47.576;7.524;2023-03-01T08:20:05;98856.75;;;22.29;37.19
67818;BME280;54614;47.576;7.524;2023-03-01T08:22:33;98851.59;;;22.28;36.34
67818;BME280;54614;47.576;7.524;2023-03-01T08:24:59;98853.88;;;22.31;35.91
67818;BME280;54614;47.576;7.524;2023-03-01T08:27:25;98853.25;;;22.29;35.37
67818;BME280;54614;47.576;7.524;2023-03-01T08:29:51;98847.69;;;22.30;35.14
67818;BME280;54614;47.576;7.524;2023-03-01T08:32:17;98852.88;;;22.32;34.72
67818;BME280;54614;47.576;7.524;2023-03-01T08:34:47;98852.03;;;22.31;34.38
67818;BME280;54614;47.576;7.524;2023-03-01T08:37:13;98848.34;;;22.32;34.27
67818;BME280;54614;47.576;7.524;2023-03-01T08:39:39;98846.94;;;22.36;34.17
67818;BME280;54614;47.576;7.524;2023-03-01T08:42:05;98853.94;;;22.37;34.01
67818;BME280;54614;47.576;7.524;2023-03-01T08:44:31;98844.25;;;22.36;33.65
67818;BME280;54614;47.576;7.524;2023-03-01T08:46:58;98849.81;;;22.35;33.54
67818;BME280;54614;47.576;7.524;2023-03-01T08:49:24;98861.63;;;22.40;33.22
67818;BME280;54614;47.576;7.524;2023-03-01T08:51:50;98850.75;;;22.48;33.00
67818;BME280;54614;47.576;7.524;2023-03-01T08:54:19;98854.22;;;22.42;33.12
67818;BME280;54614;47.576;7.524;2023-03-01T08:56:46;98851.53;;;22.42;33.08
67818;BME280;54614;47.576;7.524;2023-03-01T08:59:13;98853.94;;;22.37;33.01
67818;BME280;54614;47.576;7.524;2023-03-01T09:01:40;98835.44;;;22.42;32.63
67818;BME280;54614;47.576;7.524;2023-03-01T09:04:09;98837.69;;;22.39;32.78
67818;BME280;54614;47.576;7.524;2023-03-01T09:06:36;98825.09;;;22.39;32.54
67818;BME280;54614;47.576;7.524;2023-03-01T09:09:04;98828.44;;;22.41;32.45
67818;BME280;54614;47.576;7.524;2023-03-01T09:11:30;98842.66;;;22.42;32.15
67818;BME280;54614;47.576;7.524;2023-03-01T09:13:56;98829.63;;;22.39;32.24
67818;BME280;54614;47.576;7.524;2023-03-01T09:16:23;98826.97;;;22.39;32.22
67818;BME280;54614;47.576;7.524;2023-03-01T09:18:52;98826.78;;;22.40;32.03
67818;BME280;54614;47.576;7.524;2023-03-01T09:21:19;98824.28;;;22.39;32.00
67818;BME280;54614;47.576;7.524;2023-03-01T09:23:47;98824.47;;;22.37;31.96
67818;BME280;54614;47.576;7.524;2023-03-01T09:26:16;98824.47;;;22.37;31.92
67818;BME280;54614;47.576;7.524;2023-03-01T09:28:46;98825.50;;;22.36;31.84
67818;BME280;54614;47.576;7.524;2023-03-01T09:31:13;98819.31;;;22.36;31.63
67818;BME280;54614;47.576;7.524;2023-03-01T09:33:41;98823.25;;;22.40;31.60
67818;BME280;54614;47.576;7.524;2023-03-01T09:36:16;98820.00;;;22.44;31.53
67818;BME280;54614;47.576;7.524;2023-03-01T09:38:43;98827.91;;;22.52;31.30
67818;BME280;54614;47.576;7.524;2023-03-01T09:41:49;98818.91;;;22.60;31.22
67818;BME280;54614;47.576;7.524;2023-03-01T09:47:24;98815.75;;;22.78;30.34
67818;BME280;54614;47.576;7.524;2023-03-01T09:54:58;98811.56;;;22.90;30.38
67818;BME280;54614;47.576;7.524;2023-03-01T10:11:11;98802.13;;;23.01;30.34
67818;BME280;54614;47.576;7.524;2023-03-01T10:13:47;98804.22;;;23.05;30.15
67818;BME280;54614;47.576;7.524;2023-03-01T10:19:44;98806.47;;;23.02;30.52
67818;BME280;54614;47.576;7.524;2023-03-01T10:22:17;98799.06;;;23.04;30.35
67818;BME280;54614;47.576;7.524;2023-03-01T10:24:47;98798.00;;;22.98;30.49
67818;BME280;54614;47.576;7.524;2023-03-01T10:27:24;98801.09;;;23.02;30.43
67818;BME280;54614;47.576;7.524;2023-03-01T10:30:12;98786.88;;;23.01;30.52
67818;BME280;54614;47.576;7.524;2023-03-01T10:32:43;98787.06;;;23.00;30.53
67818;BME280;54614;47.576;7.524;2023-03-01T10:35:27;98785.22;;;23.00;30.69
67818;BME280;54614;47.576;7.524;2023-03-01T10:38:10;98780.66;;;23.01;30.66
67818;BME280;54614;47.576;7.524;2023-03-01T10:40:49;98778.44;;;23.04;30.56
67818;BME280;54614;47.576;7.524;2023-03-01T10:43:16;98780.44;;;22.96;30.76
67818;BME280;54614;47.576;7.524;2023-03-01T10:45:42;98776.91;;;22.95;30.68
67818;BME280;54614;47.576;7.524;2023-03-01T10:48:16;98780.66;;;23.01;30.78
67818;BME280;54614;47.576;7.524;2023-03-01T10:50:45;98774.09;;;23.03;30.81
67818;BME280;54614;47.576;7.524;2023-03-01T10:53:26;98775.53;;;23.06;30.76
67818;BME280;54614;47.576;7.524;2023-03-01T10:58:24;98778.47;;;23.11;30.82
67818;BME280;54614;47.576;7.524;2023-03-01T11:00:56;98767.53;;;23.12;30.87
67818;BME280;54614;47.576;7.524;2023-03-01T11:03:32;98765.09;;;23.18;30.64
67818;BME280;54614;47.576;7.524;2023-03-01T11:08:36;98757.47;;;23.21;30.65
67818;BME280;54614;47.576;7.524;2023-03-01T11:11:29;98756.25;;;23.24;30.80
67818;BME280;54614;47.576;7.524;2023-03-01T11:14:06;98755.00;;;23.26;30.74
67818;BME280;54614;47.576;7.524;2023-03-01T11:16:38;98754.63;;;23.29;30.81
67818;BME280;54614;47.576;7.524;2023-03-01T11:27:08;98742.06;;;23.36;30.35
67818;BME280;54614;47.576;7.524;2023-03-01T11:30:05;98745.56;;;23.37;30.25
67818;BME280;54614;47.576;7.524;2023-03-01T11:35:24;98738.13;;;23.32;31.28
67818;BME280;54614;47.576;7.524;2023-03-01T11:38:24;98738.13;;;23.32;31.34
67818;BME280;54614;47.576;7.524;2023-03-01T12:00:20;98720.97;;;23.33;30.73
67818;BME280;54614;47.576;7.524;2023-03-01T12:05:49;98714.59;;;23.34;30.57
67818;BME280;54614;47.576;7.524;2023-03-01T12:19:14;98701.41;;;23.46;30.59
67818;BME280;54614;47.576;7.524;2023-03-01T12:30:21;98686.72;;;23.35;29.68
67818;BME280;54614;47.576;7.524;2023-03-01T12:38:48;98675.16;;;23.35;30.04
67818;BME280;54614;47.576;7.524;2023-03-01T12:52:25;98664.81;;;23.32;29.92
67818;BME280;54614;47.576;7.524;2023-03-01T12:54:57;98662.38;;;23.37;29.96
67818;BME280;54614;47.576;7.524;2023-03-01T12:57:31;98663.38;;;23.36;29.88
67818;BME280;54614;47.576;7.524;2023-03-01T13:00:26;98660.06;;;23.34;29.86
67818;BME280;54614;47.576;7.524;2023-03-01T13:05:39;98645.00;;;23.33;29.84
67818;BME280;54614;47.576;7.524;2023-03-01T13:10:48;98642.72;;;23.30;30.24
67818;BME280;54614;47.576;7.524;2023-03-01T13:13:21;98639.84;;;23.31;29.76
67818;BME280;54614;47.576;7.524;2023-03-01T13:15:47;98639.00;;;23.31;29.65
67818;BME280;54614;47.576;7.524;2023-03-01T13:20:50;98638.19;;;23.30;29.55
67818;BME280;54614;47.576;7.524;2023-03-01T13:31:10;98635.09;;;23.33;29.73
67818;BME280;54614;47.576;7.524;2023-03-01T13:33:56;98635.09;;;23.33;29.69
67818;BME280;54614;47.576;7.524;2023-03-01T13:46:46;98635.50;;;23.30;29.44
67818;BME280;54614;47.576;7.524;2023-03-01T13:49:16;98628.28;;;23.31;29.53
67818;BME280;54614;47.576;7.524;2023-03-01T13:51:47;98626.19;;;23.26;29.40
67818;BME280;54614;47.576;7.524;2023-03-01T13:54:34;98627.84;;;23.21;29.46
67818;BME280;54614;47.576;7.524;2023-03-01T13:57:01;98618.13;;;23.20;29.28
67818;BME280;54614;47.576;7.524;2023-03-01T13:59:28;98618.16;;;23.26;29.23
67818;BME280;54614;47.576;7.524;2023-03-01T14:01:58;98611.94;;;23.26;29.34
67818;BME280;54614;47.576;7.524;2023-03-01T14:04:27;98617.94;;;23.21;29.41
67818;BME280;54614;47.576;7.524;2023-03-01T14:09:40;98609.44;;;23.18;29.42
67818;BME280;54614;47.576;7.524;2023-03-01T14:19:59;98621.59;;;23.07;29.39
67818;BME280;54614;47.576;7.524;2023-03-01T14:22:36;98617.06;;;23.07;29.46
67818;BME280;54614;47.576;7.524;2023-03-01T14:25:27;98619.13;;;23.05;29.39
67818;BME280;54614;47.576;7.524;2023-03-01T14:27:56;98623.84;;;23.03;29.39
67818;BME280;54614;47.576;7.524;2023-03-01T14:30:30;98620.75;;;23.06;29.20
67818;BME280;54614;47.576;7.524;2023-03-01T14:33:00;98626.75;;;23.08;29.27
67818;BME280;54614;47.576;7.524;2023-03-01T14:35:32;98622.41;;;23.07;29.29
67818;BME280;54614;47.576;7.524;2023-03-01T14:37:58;98623.66;;;23.05;29.26
67818;BME280;54614;47.576;7.524;2023-03-01T14:40:28;98622.00;;;23.04;29.37
67818;BME280;54614;47.576;7.524;2023-03-01T14:42:56;98624.47;;;23.05;29.32
67818;BME280;54614;47.576;7.524;2023-03-01T14:45:26;98625.91;;;23.01;29.58
67818;BME280;54614;47.576;7.524;2023-03-01T14:47:54;98622.59;;;22.99;29.76
67818;BME280;54614;47.576;7.524;2023-03-01T14:50:25;98620.50;;;22.95;29.91
67818;BME280;54614;47.576;7.524;2023-03-01T14:52:55;98624.03;;;22.95;29.79
67818;BME280;54614;47.576;7.524;2023-03-01T14:55:38;98623.81;;;22.97;29.76
67818;BME280;54614;47.576;7.524;2023-03-01T14:58:13;98615.97;;;22.95;29.77
67818;BME280;54614;47.576;7.524;2023-03-01T15:00:55;98613.50;;;22.94;29.95
67818;BME280;54614;47.576;7.524;2023-03-01T15:03:33;98615.34;;;22.93;29.83
67818;BME280;54614;47.576;7.524;2023-03-01T15:06:04;98611.41;;;22.89;29.86
67818;BME280;54614;47.576;7.524;2023-03-01T15:08:32;98615.75;;;22.90;29.93
67818;BME280;54614;47.576;7.524;2023-03-01T15:11:03;98619.47;;;22.89;29.89
67818;BME280;54614;47.576;7.524;2023-03-01T15:13:34;98619.47;;;22.89;29.96
67818;BME280;54614;47.576;7.524;2023-03-01T15:16:12;98614.91;;;22.90;30.11
67818;BME280;54614;47.576;7.524;2023-03-01T15:18:46;98608.72;;;22.89;30.19
67818;BME280;54614;47.576;7.524;2023-03-01T15:23:58;98615.13;;;22.88;30.54
67818;BME280;54614;47.576;7.524;2023-03-01T15:26:31;98608.72;;;22.89;30.80
67818;BME280;54614;47.576;7.524;2023-03-01T15:28:59;98599.66;;;22.90;30.98
67818;BME280;54614;47.576;7.524;2023-03-01T15:31:36;98586.66;;;22.87;31.44
67818;BME280;54614;47.576;7.524;2023-03-01T15:34:28;98592.00;;;22.87;31.90
67818;BME280;54614;47.576;7.524;2023-03-01T15:36:56;98579.84;;;22.91;31.89
67818;BME280;54614;47.576;7.524;2023-03-01T15:39:41;98589.75;;;22.91;31.38
67818;BME280;54614;47.576;7.524;2023-03-01T15:47:57;98592.63;;;22.89;31.70